Bulk Beothuk — V7AK7 — position and weather

sailwx.info

Track history (hours):
 
Tides and Currents Weather Stations Pressure Air Temp Water Temp Dewpoint Dewpoint Depression Visibility Wind Speed Wind Dir Waves Ship Positions

Bulk Beothuk

Last reported at 2018-May-17 03:02 UTC. Time now 2018-May-28 01:31 UTC.
Position N 01°24' E 104°30'.
Warning: this ship's position is 10 days out of date.

Length 190 m; draft 6.8 m.

Type: Cargo ship. MMSI: 538005017.

Date/timePositionNaut miles runAvg speedWind from/ knotsBaromVisibWave heightAir tempDewpointWater temp
2018-May-17 03:02N 01°24' E 104°30'110.9
2018-May-17 02:57N 01°24' E 104°29'510.7
2018-May-17 02:28N 01°21' E 104°25'510.8
2018-May-17 01:59N 01°18' E 104°21'711.4
2018-May-17 01:21N 01°16' E 104°13'411.7
2018-May-17 00:58N 01°16' E 104°09'611.9
2018-May-17 00:30N 01°15' E 104°04'5 9.2
2018-May-17 00:00N 01°14' E 103°59'3 5.3
2018-May-16 23:29N 01°13' E 103°57'4 8.4
2018-May-16 22:59N 01°12' E 103°53'510.4
2018-May-16 22:30N 01°10' E 103°48'713.5
2018-May-16 21:59N 01°05' E 103°43'611.7
2018-May-16 21:30N 01°04' E 103°37'611.4
2018-May-16 20:59N 01°07' E 103°32'611.6
2018-May-16 20:29N 01°10' E 103°27'611.7
2018-May-16 19:58N 01°14' E 103°22'611.7
2018-May-16 19:29N 01°17' E 103°18'  
Track history (hours):
 
Tides and Currents Weather Stations Pressure Air Temp Water Temp Dewpoint Dewpoint Depression Visibility Wind Speed Wind Dir Waves Ship Positions

Bulk Beothuk

Last reported at 2018-May-17 03:02 UTC. Time now 2018-May-28 01:31 UTC.
Position N 01°24' E 104°30'.
Warning: this ship's position is 10 days out of date.

Length 190 m; draft 6.8 m.

Type: Cargo ship. MMSI: 538005017.

Date/timePositionNaut miles runAvg speedWind from/ knotsBaromVisibWave heightAir tempDewpointWater temp
2018-May-17 03:02N 01°24' E 104°30'110.9
2018-May-17 02:57N 01°24' E 104°29'510.7
2018-May-17 02:28N 01°21' E 104°25'510.8
2018-May-17 01:59N 01°18' E 104°21'711.4
2018-May-17 01:21N 01°16' E 104°13'411.7
2018-May-17 00:58N 01°16' E 104°09'611.9
2018-May-17 00:30N 01°15' E 104°04'5 9.2
2018-May-17 00:00N 01°14' E 103°59'3 5.3
2018-May-16 23:29N 01°13' E 103°57'4 8.4
2018-May-16 22:59N 01°12' E 103°53'510.4
2018-May-16 22:30N 01°10' E 103°48'713.5
2018-May-16 21:59N 01°05' E 103°43'611.7
2018-May-16 21:30N 01°04' E 103°37'611.4
2018-May-16 20:59N 01°07' E 103°32'611.6
2018-May-16 20:29N 01°10' E 103°27'611.7
2018-May-16 19:58N 01°14' E 103°22'611.7
2018-May-16 19:29N 01°17' E 103°18'  

Dump ship's entire track history